Time;durP1;ratioP1;P1;durP2;ratioP2;P2;SDS_P1;SDS_P2;PMS_P1;PMS_P2;Temp;Humidity;BMP_temperature;BMP_pressure;BME280_temperature;BME280_humidity;BME280_pressure;Samples;Min_cycle;Max_cycle;Signal;HPM_P1;HPM_P2
2021/08/21 00:02:19;;;;;;;9.20;6.40;;;;;;;;;;5051686;28;20550;-67
2021/08/21 00:04:47;;;;;;;7.27;5.93;;;;;;;;;;5052170;28;20283;-68
2021/08/21 00:07:14;;;;;;;7.53;6.17;;;;;;;;;;5051949;28;20200;-67
2021/08/21 00:09:41;;;;;;;9.23;6.30;;;;;;;;;;5052127;28;20287;-70
2021/08/21 00:12:08;;;;;;;6.20;5.60;;;;;;;;;;5058845;28;20642;-72
2021/08/21 00:14:35;;;;;;;12.10;6.30;;;;;;;;;;5072007;28;20204;-66
2021/08/21 00:17:02;;;;;;;7.73;6.53;;;;;;;;;;5071465;28;20259;-67
2021/08/21 00:19:29;;;;;;;9.20;6.50;;;;;;;;;;5071223;28;20183;-70
2021/08/21 00:21:56;;;;;;;8.00;6.70;;;;;;;;;;5071283;28;20202;-68
2021/08/21 00:24:22;;;;;;;7.23;6.53;;;;;;;;;;5059508;28;20189;-71
2021/08/21 00:26:49;;;;;;;8.80;6.63;;;;;;;;;;5055087;28;20275;-71
2021/08/21 00:29:16;;;;;;;8.87;7.37;;;;;;;;;;5071522;28;20196;-69
2021/08/21 00:31:43;;;;;;;8.67;6.33;;;;;;;;;;5057212;28;20222;-68
2021/08/21 00:34:10;;;;;;;18.10;6.47;;;;;;;;;;5071672;28;20206;-72
2021/08/21 00:36:38;;;;;;;8.70;6.87;;;;;;;;;;5053308;28;20409;-66
2021/08/21 00:39:06;;;;;;;7.07;5.97;;;;;;;;;;5059294;28;20192;-69
2021/08/21 00:41:33;;;;;;;7.57;5.90;;;;;;;;;;5070879;28;20206;-68
2021/08/21 00:44:00;;;;;;;9.40;5.80;;;;;;;;;;5051379;28;20246;-69
2021/08/21 00:46:27;;;;;;;7.87;6.27;;;;;;;;;;5051407;28;20674;-68
2021/08/21 00:48:54;;;;;;;7.90;5.73;;;;;;;;;;5056404;28;20199;-66
2021/08/21 00:51:21;;;;;;;8.47;6.30;;;;;;;;;;5065258;28;20185;-71
2021/08/21 00:53:47;;;;;;;9.57;6.07;;;;;;;;;;5049962;28;20299;-70
2021/08/21 00:56:15;;;;;;;13.30;6.27;;;;;;;;;;5063123;28;20231;-66
2021/08/21 00:58:42;;;;;;;8.33;5.57;;;;;;;;;;5049663;28;20236;-68
2021/08/21 01:01:09;;;;;;;6.87;6.17;;;;;;;;;;5049815;28;20203;-71
2021/08/21 01:03:36;;;;;;;10.90;6.40;;;;;;;;;;5062711;28;20299;-68
2021/08/21 01:06:03;;;;;;;8.03;6.00;;;;;;;;;;5051139;28;20202;-68
2021/08/21 01:08:30;;;;;;;7.80;5.63;;;;;;;;;;5063150;28;20199;-65
2021/08/21 01:11:06;;;;;;;7.57;6.50;;;;;;;;;;5062207;28;20569;-68
2021/08/21 01:13:34;;;;;;;7.17;5.40;;;;;;;;;;5064574;28;20650;-69
2021/08/21 01:16:01;;;;;;;6.83;5.77;;;;;;;;;;5049200;28;20198;-68
2021/08/21 01:18:29;;;;;;;7.70;6.23;;;;;;;;;;5052717;28;20200;-70
2021/08/21 01:20:56;;;;;;;11.27;6.40;;;;;;;;;;5057302;28;20200;-67
2021/08/21 01:23:24;;;;;;;10.60;5.80;;;;;;;;;;5051620;28;20192;-67
2021/08/21 01:26:00;;;;;;;7.13;6.10;;;;;;;;;;5049090;28;20200;-67
2021/08/21 01:28:35;;;;;;;9.30;6.70;;;;;;;;;;5049254;28;20727;-69
2021/08/21 01:31:25;;;;;;;7.57;5.73;;;;;;;;;;5050010;28;20234;-68
2021/08/21 01:33:52;;;;;;;7.17;5.93;;;;;;;;;;5049282;28;20200;-72
2021/08/21 01:36:20;;;;;;;10.23;6.70;;;;;;;;;;5048803;28;20213;-67
2021/08/21 01:39:22;;;;;;;7.47;5.90;;;;;;;;;;5058636;28;20253;-67
2021/08/21 01:41:55;;;;;;;9.37;6.10;;;;;;;;;;5048173;28;20223;-68
2021/08/21 01:44:22;;;;;;;8.67;6.10;;;;;;;;;;5049097;28;20240;-69
2021/08/21 01:46:49;;;;;;;11.97;6.37;;;;;;;;;;5064191;28;20204;-69
2021/08/21 01:49:22;;;;;;;7.50;5.80;;;;;;;;;;5060685;28;20189;-71
2021/08/21 01:51:54;;;;;;;6.77;6.07;;;;;;;;;;5048152;28;20249;-72
2021/08/21 01:54:23;;;;;;;6.87;5.97;;;;;;;;;;5049797;28;20196;-69
2021/08/21 01:56:51;;;;;;;10.77;6.17;;;;;;;;;;5061177;28;20641;-67
2021/08/21 01:59:39;;;;;;;7.40;6.47;;;;;;;;;;5052245;28;20217;-70
2021/08/21 02:02:15;;;;;;;7.77;6.30;;;;;;;;;;5068283;28;20580;-67
2021/08/21 02:04:50;;;;;;;8.20;6.33;;;;;;;;;;5054089;28;20626;-66
2021/08/21 02:07:19;;;;;;;8.90;5.80;;;;;;;;;;5058985;28;20556;-66
2021/08/21 02:09:46;;;;;;;9.67;6.60;;;;;;;;;;5051441;28;20223;-68
2021/08/21 02:12:16;;;;;;;12.20;6.33;;;;;;;;;;5068149;28;20196;-68
2021/08/21 02:14:50;;;;;;;11.17;6.47;;;;;;;;;;5067228;28;20207;-70
2021/08/21 02:17:17;;;;;;;10.03;6.47;;;;;;;;;;5058469;28;20697;-68
2021/08/21 02:19:57;;;;;;;11.83;7.40;;;;;;;;;;5064077;28;21210;-66
2021/08/21 02:22:25;;;;;;;10.50;6.30;;;;;;;;;;5058945;28;20589;-67
2021/08/21 02:24:52;;;;;;;12.20;6.93;;;;;;;;;;5051293;28;20346;-68
2021/08/21 02:27:24;;;;;;;10.57;6.93;;;;;;;;;;5048169;28;20192;-72
2021/08/21 02:29:51;;;;;;;8.70;6.40;;;;;;;;;;5049460;28;20202;-69
2021/08/21 02:32:18;;;;;;;10.33;6.67;;;;;;;;;;5049487;28;20238;-71
2021/08/21 02:34:45;;;;;;;8.03;6.50;;;;;;;;;;5062215;28;20393;-70
2021/08/21 02:37:12;;;;;;;10.17;7.50;;;;;;;;;;5061737;28;20247;-69
2021/08/21 02:39:40;;;;;;;7.23;6.13;;;;;;;;;;5062618;28;20697;-67
2021/08/21 02:42:07;;;;;;;6.93;6.33;;;;;;;;;;5050033;28;20184;-68
2021/08/21 02:44:33;;;;;;;9.47;6.57;;;;;;;;;;5048085;28;20258;-69
2021/08/21 02:47:00;;;;;;;8.67;6.43;;;;;;;;;;5050863;28;20203;-66
2021/08/21 02:49:27;;;;;;;8.30;6.20;;;;;;;;;;5063248;28;20207;-70
2021/08/21 02:51:53;;;;;;;7.83;6.03;;;;;;;;;;5063321;28;20264;-68
2021/08/21 02:54:20;;;;;;;9.03;6.30;;;;;;;;;;5053153;28;20272;-68
2021/08/21 02:56:48;;;;;;;8.77;6.70;;;;;;;;;;5053043;28;20282;-66
2021/08/21 02:59:16;;;;;;;10.07;6.90;;;;;;;;;;5052281;28;20235;-67
2021/08/21 03:01:44;;;;;;;10.07;7.37;;;;;;;;;;5070842;28;20202;-68
2021/08/21 03:04:12;;;;;;;8.80;6.63;;;;;;;;;;5071950;28;20207;-68
2021/08/21 03:06:40;;;;;;;9.07;6.10;;;;;;;;;;5057064;28;20226;-70
2021/08/21 03:09:12;;;;;;;8.30;6.20;;;;;;;;;;5060422;28;20200;-68
2021/08/21 03:11:40;;;;;;;11.77;6.70;;;;;;;;;;5068926;28;20196;-71
2021/08/21 03:14:27;;;;;;;8.03;6.83;;;;;;;;;;5061025;28;20208;-69
2021/08/21 03:16:54;;;;;;;11.53;7.10;;;;;;;;;;5069773;28;20241;-68
2021/08/21 03:19:20;;;;;;;9.27;6.97;;;;;;;;;;5041881;28;20291;-66
2021/08/21 03:21:48;;;;;;;8.90;7.00;;;;;;;;;;5070403;28;20253;-72
2021/08/21 03:24:18;;;;;;;11.47;7.60;;;;;;;;;;5071621;28;20204;-67
2021/08/21 03:26:47;;;;;;;11.03;7.80;;;;;;;;;;5066223;28;20208;-68
2021/08/21 03:29:14;;;;;;;8.90;6.60;;;;;;;;;;5052652;28;20200;-67
2021/08/21 03:31:41;;;;;;;7.50;6.27;;;;;;;;;;5051288;28;20192;-67
2021/08/21 03:34:09;;;;;;;12.67;6.60;;;;;;;;;;5056577;28;20207;-69
2021/08/21 03:36:35;;;;;;;10.93;7.33;;;;;;;;;;5062754;28;20742;-66
2021/08/21 03:39:03;;;;;;;9.60;7.07;;;;;;;;;;5056017;28;21305;-70
2021/08/21 03:41:29;;;;;;;13.37;6.87;;;;;;;;;;5053234;28;20287;-68
2021/08/21 03:44:02;;;;;;;10.47;7.20;;;;;;;;;;5053734;28;20232;-73
2021/08/21 03:46:31;;;;;;;9.03;6.73;;;;;;;;;;5059355;28;20203;-72
2021/08/21 03:48:58;;;;;;;9.50;6.63;;;;;;;;;;5055183;28;20654;-67
2021/08/21 03:51:27;;;;;;;7.67;6.87;;;;;;;;;;5051356;28;20200;-70
2021/08/21 03:53:54;;;;;;;15.70;7.07;;;;;;;;;;5051226;28;20651;-67
2021/08/21 03:58:28;;;;;;;9.77;6.67;;;;;;;20.25;49.24;95268.72;5047482;28;20573;-67
2021/08/21 04:00:56;;;;;;;9.67;7.10;;;;;;;20.15;49.26;95266.28;5040117;28;20690;-68
2021/08/21 04:03:23;;;;;;;8.37;6.80;;;;;;;20.12;49.57;95277.56;5038894;28;20228;-70
2021/08/21 04:05:51;;;;;;;10.43;6.77;;;;;;;20.14;49.42;95280.69;5072098;28;20225;-70
2021/08/21 04:08:18;;;;;;;9.07;7.10;;;;;;;20.13;49.52;95279.09;5032155;28;20212;-69
2021/08/21 04:10:46;;;;;;;12.57;6.90;;;;;;;20.21;49.25;95283.72;5044514;28;20239;-70
2021/08/21 04:13:14;;;;;;;10.03;7.10;;;;;;;20.19;48.83;95280.59;5045349;28;20223;-69
2021/08/21 04:15:41;;;;;;;11.83;7.27;;;;;;;20.21;48.83;95289.06;5074345;28;20592;-69
2021/08/21 04:18:09;;;;;;;7.07;6.37;;;;;;;20.31;49.09;95283.44;5042308;28;20315;-70
2021/08/21 04:20:36;;;;;;;9.10;6.50;;;;;;;20.33;49.09;95297.25;5044455;28;20197;-71
2021/08/21 04:23:04;;;;;;;8.13;6.57;;;;;;;20.40;48.67;95294.91;5044646;28;20659;-69
2021/08/21 04:25:33;;;;;;;9.13;7.07;;;;;;;20.26;48.57;95302.22;5044314;28;20201;-71
2021/08/21 04:28:05;;;;;;;10.37;6.70;;;;;;;20.32;48.70;95295.69;5078059;28;20265;-69
2021/08/21 04:30:32;;;;;;;9.07;6.57;;;;;;;20.27;49.04;95303.81;5044611;28;20671;-70
2021/08/21 04:32:59;;;;;;;9.83;6.47;;;;;;;20.39;48.95;95301.34;5044665;28;20295;-70
2021/08/21 04:35:27;;;;;;;7.80;7.00;;;;;;;20.24;49.27;95293.75;5045110;28;20200;-69
2021/08/21 04:37:54;;;;;;;8.33;7.17;;;;;;;20.37;49.31;95302.72;5045251;28;20205;-68
2021/08/21 04:40:24;;;;;;;10.50;7.17;;;;;;;20.40;48.95;95291.50;5044803;28;20207;-69
2021/08/21 04:42:56;;;;;;;9.07;6.90;;;;;;;20.37;49.17;95292.88;5058248;28;20675;-68
2021/08/21 04:45:24;;;;;;;12.23;7.13;;;;;;;20.38;49.21;95304.31;5067788;28;20212;-70
2021/08/21 04:47:51;;;;;;;9.43;7.07;;;;;;;20.38;49.27;95297.13;5046580;28;20227;-68
2021/08/21 04:50:21;;;;;;;13.27;7.90;;;;;;;20.62;49.60;95305.50;5044628;28;20262;-68
2021/08/21 04:52:49;;;;;;;10.57;7.53;;;;;;;20.63;49.65;95306.28;5045240;28;20232;-71
2021/08/21 04:55:16;;;;;;;16.47;8.13;;;;;;;20.56;49.56;95301.44;5044623;28;20201;-67
2021/08/21 04:57:43;;;;;;;13.50;7.80;;;;;;;20.53;49.97;95303.91;5044853;28;20240;-71
2021/08/21 05:00:10;;;;;;;11.30;7.00;;;;;;;20.53;50.24;95302.03;5044435;28;20259;-70
2021/08/21 05:02:58;;;;;;;13.47;6.93;;;;;;;20.53;50.24;95302.03;5047461;28;20629;-69
2021/08/21 05:05:28;;;;;;;8.00;6.10;;;;;;;20.53;50.33;95302.03;5045064;28;20211;-71
2021/08/21 05:07:57;;;;;;;11.67;6.43;;;;;;;20.67;49.75;95308.03;5042595;28;20636;-70
2021/08/21 05:10:27;;;;;;;9.57;6.30;;;;;;;20.69;49.53;95307.72;5026472;28;20221;-68
2021/08/21 05:12:54;;;;;;;7.37;6.10;;;;;;;20.64;49.24;95303.31;5031662;28;20650;-69
2021/08/21 05:15:21;;;;;;;7.47;5.70;;;;;;;20.76;48.70;95314.19;5033717;28;20229;-70
2021/08/21 05:18:09;;;;;;;8.33;5.60;;;;;;;20.82;48.44;95310.25;5032339;28;20324;-68
2021/08/21 05:20:53;;;;;;;11.83;5.53;;;;;;;20.69;48.39;95319.16;5030980;28;20243;-69
2021/08/21 05:23:21;;;;;;;7.10;5.40;;;;;;;20.66;48.10;95316.31;5047819;28;20197;-71
2021/08/21 05:25:50;;;;;;;22.20;7.50;;;;;;;20.65;49.12;95320.88;5047152;28;20276;-71
2021/08/21 05:28:18;;;;;;;13.73;6.53;;;;;;;20.66;48.81;95317.09;5031387;28;20194;-70
2021/08/21 05:30:47;;;;;;;7.97;5.30;;;;;;;20.69;49.21;95310.41;5021240;28;20574;-70
2021/08/21 05:33:16;;;;;;;13.70;5.77;;;;;;;20.70;48.60;95307.41;5031181;28;20259;-69
2021/08/21 05:35:48;;;;;;;8.73;5.33;;;;;;;20.74;48.13;95311.03;5022336;28;20210;-69
2021/08/21 05:38:15;;;;;;;9.20;5.30;;;;;;;20.95;47.69;95313.91;5027097;28;20221;-70
2021/08/21 05:40:42;;;;;;;8.77;5.57;;;;;;;20.95;47.12;95316.56;5032105;28;20201;-70
2021/08/21 05:43:12;;;;;;;8.93;6.20;;;;;;;21.03;46.82;95321.97;5017074;28;20205;-71
2021/08/21 05:45:39;;;;;;;13.83;5.63;;;;;;;21.06;46.77;95326.66;5017989;28;20736;-70
2021/08/21 05:48:07;;;;;;;8.27;5.87;;;;;;;21.14;47.05;95322.44;5020178;28;20200;-71
2021/08/21 05:50:34;;;;;;;14.80;6.17;;;;;;;21.17;46.07;95315.72;5016444;28;20208;-71
2021/08/21 05:53:01;;;;;;;9.30;5.80;;;;;;;21.23;45.61;95311.78;5031890;28;20578;-69
2021/08/21 05:55:28;;;;;;;8.57;5.13;;;;;;;21.11;45.95;95315.09;5030448;28;20201;-70
2021/08/21 05:58:00;;;;;;;9.63;5.40;;;;;;;21.21;46.41;95316.66;5021129;28;20238;-70
2021/08/21 06:00:27;;;;;;;12.70;5.27;;;;;;;21.41;45.92;95310.72;5027282;28;20241;-69
2021/08/21 06:02:54;;;;;;;9.97;4.80;;;;;;;21.42;46.44;95315.75;5031761;28;20248;-70
2021/08/21 06:05:22;;;;;;;9.53;5.50;;;;;;;21.46;45.73;95308.69;5031837;28;20201;-70
2021/08/21 06:07:54;;;;;;;6.00;4.90;;;;;;;21.50;45.94;95308.84;5030706;28;20212;-69
2021/08/21 06:10:30;;;;;;;6.30;5.13;;;;;;;21.40;44.83;95311.81;5030240;28;20203;-70
2021/08/21 06:12:57;;;;;;;6.87;4.90;;;;;;;21.28;45.32;95312.44;5030311;28;20263;-71
2021/08/21 06:15:24;;;;;;;9.33;4.83;;;;;;;21.39;46.78;95313.69;5031344;28;20585;-72
2021/08/21 06:17:51;;;;;;;8.27;5.23;;;;;;;21.43;46.05;95293.31;5031824;28;20224;-70
2021/08/21 06:20:18;;;;;;;9.13;5.63;;;;;;;21.73;44.55;95302.25;5030365;28;20197;-73
2021/08/21 06:22:45;;;;;;;7.00;5.43;;;;;;;21.90;44.66;95302.25;5018431;28;20201;-70
2021/08/21 06:25:12;;;;;;;8.30;5.10;;;;;;;21.93;44.18;95307.75;5025272;28;20200;-71
2021/08/21 06:27:39;;;;;;;10.63;5.20;;;;;;;21.87;44.81;95308.22;5011466;28;20210;-69
2021/08/21 06:30:07;;;;;;;9.40;5.57;;;;;;;22.12;43.48;95300.19;5028815;28;20564;-71
2021/08/21 06:32:34;;;;;;;6.40;5.13;;;;;;;22.13;44.29;95298.31;5031265;28;20194;-68
2021/08/21 06:35:01;;;;;;;8.37;4.50;;;;;;;22.10;43.05;95312.25;5030371;28;20590;-68
2021/08/21 06:37:28;;;;;;;8.13;4.50;;;;;;;22.08;44.02;95309.13;5031330;28;20240;-69
2021/08/21 06:39:55;;;;;;;11.37;4.90;;;;;;;22.15;43.55;95298.78;5030864;28;20209;-68
2021/08/21 06:42:22;;;;;;;14.77;5.10;;;;;;;22.29;43.53;95296.69;5023726;28;20202;-71
2021/08/21 06:45:08;;;;;;;5.80;4.50;;;;;;;22.39;42.90;95299.00;5027361;28;20228;-72
2021/08/21 06:47:35;;;;;;;6.57;4.40;;;;;;;22.50;42.65;95296.78;5011665;28;20657;-71
2021/08/21 06:50:05;;;;;;;9.07;4.70;;;;;;;22.32;43.91;95276.56;5024993;28;20200;-69
2021/08/21 06:52:32;;;;;;;7.20;4.57;;;;;;;22.52;43.03;95287.31;5029513;28;20204;-69
2021/08/21 06:54:59;;;;;;;6.10;4.53;;;;;;;22.60;41.72;95289.22;5030324;28;20198;-70
2021/08/21 06:57:26;;;;;;;5.43;4.57;;;;;;;22.73;41.88;95287.44;5024833;28;20328;-69
2021/08/21 06:59:53;;;;;;;5.70;4.50;;;;;;;22.77;42.23;95294.47;5025412;28;20204;-72
2021/08/21 07:02:20;;;;;;;7.70;4.90;;;;;;;22.99;41.42;95296.88;5025190;28;20232;-70
2021/08/21 07:04:47;;;;;;;7.57;3.73;;;;;;;23.14;41.34;95298.97;5021565;28;20221;-68
2021/08/21 07:07:13;;;;;;;6.73;3.83;;;;;;;23.10;41.77;95274.00;5024297;28;20251;-76
2021/08/21 07:09:41;;;;;;;12.30;4.57;;;;;;;23.22;40.83;95293.91;5024520;28;20677;-74
2021/08/21 07:12:07;;;;;;;19.67;17.53;;;;;;;23.47;40.71;95300.97;5030315;28;20190;-74
2021/08/21 07:14:34;;;;;;;89.00;79.20;;;;;;;23.66;40.43;95293.28;5020169;28;20201;-72
2021/08/21 07:17:01;;;;;;;9.73;5.53;;;;;;;23.58;40.14;95297.59;5027267;28;20694;-74
2021/08/21 07:19:28;;;;;;;9.13;4.60;;;;;;;23.56;40.38;95293.66;5030556;28;20197;-74
2021/08/21 07:21:55;;;;;;;7.60;4.50;;;;;;;23.48;40.33;95291.84;5024161;28;20193;-74
2021/08/21 07:24:22;;;;;;;13.17;6.13;;;;;;;23.70;40.22;95288.84;5023444;28;20189;-70
2021/08/21 07:26:49;;;;;;;7.77;5.80;;;;;;;23.68;39.58;95291.06;5015777;28;20185;-71
2021/08/21 07:29:16;;;;;;;7.93;6.13;;;;;;;23.66;39.80;95278.03;5027940;28;20584;-74
2021/08/21 07:31:43;;;;;;;7.17;4.40;;;;;;;23.59;39.52;95276.97;5025530;28;20271;-73
2021/08/21 07:34:10;;;;;;;5.60;4.43;;;;;;;23.69;39.17;95271.22;5030376;28;20409;-75
2021/08/21 07:36:37;;;;;;;5.90;3.53;;;;;;;23.83;38.95;95293.16;5027153;28;20287;-72
2021/08/21 07:39:04;;;;;;;21.70;19.33;;;;;;;23.87;39.02;95294.03;5028523;28;20255;-74
2021/08/21 07:41:35;;;;;;;44.47;38.80;;;;;;;23.93;38.66;95303.44;5029598;28;20574;-76
2021/08/21 07:44:03;;;;;;;9.90;5.00;;;;;;;23.86;39.25;95292.47;5020936;28;20197;-76
2021/08/21 07:46:31;;;;;;;5.37;4.83;;;;;;;23.93;39.09;95282.00;5027735;28;20331;-73
2021/08/21 07:48:58;;;;;;;7.70;5.30;;;;;;;24.10;38.59;95303.31;5028570;28;20264;-73
2021/08/21 07:51:25;;;;;;;6.27;4.67;;;;;;;24.12;38.89;95305.66;5033883;28;20201;-71
2021/08/21 07:53:52;;;;;;;13.00;9.87;;;;;;;24.28;39.15;95293.97;5024017;28;20279;-74
2021/08/21 07:56:19;;;;;;;24.70;18.60;;;;;;;24.29;38.03;95298.22;5026973;28;20194;-73
2021/08/21 07:58:46;;;;;;;6.70;5.10;;;;;;;24.47;38.68;95296.91;5027099;28;20224;-74
2021/08/21 08:01:14;;;;;;;9.83;4.77;;;;;;;24.61;37.60;95313.47;5029050;28;20193;-73
2021/08/21 08:03:41;;;;;;;4.57;3.93;;;;;;;24.62;38.51;95309.66;5028225;28;20304;-79
2021/08/21 08:06:08;;;;;;;9.17;5.37;;;;;;;24.85;37.90;95302.00;5031966;28;20671;-79
2021/08/21 08:08:34;;;;;;;10.40;4.23;;;;;;;24.82;37.46;95302.66;5030106;28;20189;-76
2021/08/21 08:11:01;;;;;;;19.23;15.60;;;;;;;24.70;37.33;95295.41;5030148;28;20638;-75
2021/08/21 08:13:28;;;;;;;13.60;11.77;;;;;;;24.91;36.63;95296.06;5015967;28;20193;-76
2021/08/21 08:15:56;;;;;;;5.83;4.97;;;;;;;24.76;36.70;95280.66;5030028;28;20200;-78
2021/08/21 08:18:23;;;;;;;5.70;5.13;;;;;;;24.86;37.40;95264.13;5015935;28;20217;-77
2021/08/21 08:20:50;;;;;;;14.07;4.90;;;;;;;25.36;37.17;95289.75;5029290;28;20260;-72
2021/08/21 08:23:17;;;;;;;9.33;4.07;;;;;;;25.50;36.53;95301.72;5029945;28;20231;-71
2021/08/21 08:25:44;;;;;;;9.30;4.03;;;;;;;25.56;35.88;95299.59;5023362;28;20668;-79
2021/08/21 08:28:11;;;;;;;6.13;3.83;;;;;;;25.38;36.71;95287.56;5027134;28;20590;-74
2021/08/21 08:30:38;;;;;;;6.80;3.63;;;;;;;25.48;36.92;95287.06;5029343;28;20215;-76
2021/08/21 08:33:05;;;;;;;6.63;4.10;;;;;;;25.67;35.41;95295.31;5028584;28;20205;-73
2021/08/21 08:35:32;;;;;;;5.77;3.93;;;;;;;25.81;35.88;95295.69;5028910;28;20201;-74
2021/08/21 08:37:59;;;;;;;6.53;3.90;;;;;;;25.31;35.88;95287.31;5025323;28;20209;-74
2021/08/21 08:40:27;;;;;;;5.90;3.90;;;;;;;25.55;35.76;95266.59;5031358;28;20659;-74
2021/08/21 08:43:00;;;;;;;11.40;9.53;;;;;;;25.88;35.68;95285.94;5029792;28;20233;-75
2021/08/21 08:45:28;;;;;;;12.47;11.20;;;;;;;26.21;35.53;95283.00;5028911;28;20220;-74
2021/08/21 08:47:55;;;;;;;6.80;6.20;;;;;;;26.20;35.15;95284.13;5023857;28;20201;-74
2021/08/21 08:50:23;;;;;;;5.40;4.53;;;;;;;26.38;35.07;95277.31;5026515;28;20288;-74
2021/08/21 08:52:51;;;;;;;9.80;4.30;;;;;;;26.45;34.55;95272.09;5026602;28;20201;-73
2021/08/21 08:55:18;;;;;;;5.73;4.37;;;;;;;26.63;34.26;95267.16;5026987;28;20197;-74
2021/08/21 08:57:49;;;;;;;6.60;3.53;;;;;;;26.64;34.80;95266.03;5031842;28;20240;-75
2021/08/21 09:00:20;;;;;;;5.80;3.43;;;;;;;26.64;34.37;95258.75;5032565;28;20564;-76
2021/08/21 09:02:50;;;;;;;6.00;3.90;;;;;;;26.78;34.82;95269.88;5033019;28;20200;-76
2021/08/21 09:05:20;;;;;;;9.87;4.47;;;;;;;26.96;34.49;95272.97;5032907;28;20351;-69
2021/08/21 09:07:57;;;;;;;5.73;3.80;;;;;;;26.55;34.73;95282.31;5032715;28;20216;-71
2021/08/21 09:10:26;;;;;;;6.33;3.70;;;;;;;27.08;33.95;95267.47;5033006;28;20663;-72
2021/08/21 09:13:12;;;;;;;6.47;3.50;;;;;;;27.06;33.04;95268.97;5032117;28;20225;-70
2021/08/21 09:15:51;;;;;;;9.60;4.40;;;;;;;27.06;32.56;95263.59;5032406;28;20227;-72
2021/08/21 09:18:24;;;;;;;7.80;4.00;;;;;;;27.29;33.10;95267.16;5028232;28;20228;-74
2021/08/21 09:21:10;;;;;;;22.13;19.80;;;;;;;27.30;31.63;95263.38;5026980;28;20201;-68
2021/08/21 09:23:38;;;;;;;10.57;8.60;;;;;;;27.54;32.17;95249.66;5030892;28;20212;-71
2021/08/21 09:26:08;;;;;;;6.13;4.53;;;;;;;27.79;32.18;95259.03;5025564;28;20197;-75
2021/08/21 09:28:37;;;;;;;4.70;4.07;;;;;;;27.82;31.08;95252.91;5032700;28;20194;-74
2021/08/21 09:31:09;;;;;;;3.80;3.50;;;;;;;27.80;30.98;95257.88;5032320;28;20216;-74
2021/08/21 09:33:39;;;;;;;6.83;3.87;;;;;;;27.92;32.17;95249.63;5020935;28;20205;-72
2021/08/21 09:36:13;;;;;;;6.90;4.40;;;;;;;27.89;31.94;95226.13;5016959;28;20247;-72
2021/08/21 09:38:41;;;;;;;48.07;20.43;;;;;;;28.32;30.77;95244.63;5027723;28;20308;-73
2021/08/21 09:41:10;;;;;;;13.60;8.00;;;;;;;28.26;30.56;95246.09;5023868;28;20272;-73
2021/08/21 09:43:38;;;;;;;47.80;27.33;;;;;;;28.34;30.24;95236.97;5029529;28;20296;-71
2021/08/21 09:46:18;;;;;;;55.13;33.20;;;;;;;28.34;30.04;95239.66;5022397;28;20672;-71
2021/08/21 09:49:05;;;;;;;13.57;8.23;;;;;;;28.41;29.73;95242.47;5025680;28;20193;-73
2021/08/21 09:51:32;;;;;;;7.33;5.33;;;;;;;28.55;29.45;95244.66;5031965;28;20287;-69
2021/08/21 09:54:01;;;;;;;8.20;4.80;;;;;;;28.67;29.75;95242.56;5029050;28;20634;-71
2021/08/21 09:56:37;;;;;;;6.93;4.80;;;;;;;28.81;29.54;95240.06;5026550;28;20328;-72
2021/08/21 09:59:05;;;;;;;5.93;4.97;;;;;;;28.76;29.63;95237.69;5029482;28;20224;-69
2021/08/21 10:01:33;;;;;;;318.50;289.93;;;;;;;28.83;29.00;95245.88;5030376;28;20203;-70
2021/08/21 10:04:01;;;;;;;7.00;5.47;;;;;;;28.84;28.54;95242.06;5031065;28;20204;-71
2021/08/21 10:06:28;;;;;;;4.33;3.93;;;;;;;29.00;27.88;95241.91;5027916;28;20207;-70
2021/08/21 10:09:01;;;;;;;4.77;4.07;;;;;;;28.64;28.25;95239.81;5030052;28;20201;-73
2021/08/21 10:11:28;;;;;;;8.10;4.80;;;;;;;28.70;29.07;95239.13;5028094;28;20197;-70
2021/08/21 10:13:57;;;;;;;13.13;4.40;;;;;;;28.10;29.37;95234.63;5030119;28;20193;-72
2021/08/21 10:16:25;;;;;;;5.30;4.40;;;;;;;27.95;30.55;95238.19;5030257;28;20198;-70
2021/08/21 10:18:53;;;;;;;6.93;4.10;;;;;;;28.37;29.23;95236.25;5030314;28;20221;-71
2021/08/21 10:21:21;;;;;;;6.53;4.30;;;;;;;28.82;29.00;95241.66;5026478;28;20197;-70
2021/08/21 10:23:51;;;;;;;6.73;4.23;;;;;;;28.68;28.57;95214.47;5030079;28;20197;-70
2021/08/21 10:26:37;;;;;;;6.63;4.20;;;;;;;28.91;29.18;95238.69;5030220;28;20205;-74
2021/08/21 10:29:10;;;;;;;6.13;4.97;;;;;;;29.26;28.76;95222.25;5029105;28;20577;-74
2021/08/21 10:31:42;;;;;;;4.67;4.10;;;;;;;29.30;27.50;95228.47;5028345;28;20613;-72
2021/08/21 10:34:12;;;;;;;4.30;3.90;;;;;;;29.49;28.77;95225.63;5028127;28;20228;-74
2021/08/21 10:36:51;;;;;;;4.97;4.23;;;;;;;29.58;27.47;95218.78;5029023;28;20668;-73
2021/08/21 10:39:38;;;;;;;5.63;4.93;;;;;;;29.35;28.90;95215.44;5030285;28;20216;-70
2021/08/21 10:42:25;;;;;;;5.37;4.40;;;;;;;29.56;27.94;95221.06;5030233;28;20288;-72
2021/08/21 10:44:54;;;;;;;4.57;4.00;;;;;;;29.47;27.77;95217.88;5030026;28;20585;-70
2021/08/21 10:47:29;;;;;;;5.30;4.07;;;;;;;29.14;27.58;95219.78;5028117;28;20664;-72
2021/08/21 10:50:00;;;;;;;4.93;4.53;;;;;;;28.90;28.04;95210.91;5030371;28;20664;-72
2021/08/21 10:52:45;;;;;;;4.67;4.23;;;;;;;28.69;28.14;95218.69;5027666;28;20278;-74
2021/08/21 10:55:22;;;;;;;33.23;30.03;;;;;;;28.80;27.96;95216.94;5028885;28;20262;-70
2021/08/21 10:58:22;;;;;;;7.00;4.63;;;;;;;28.88;27.06;95202.44;5025590;28;20228;-68
2021/08/21 11:01:04;;;;;;;7.63;4.27;;;;;;;29.13;27.54;95212.81;5028148;28;20205;-71
2021/08/21 11:03:31;;;;;;;5.60;4.87;;;;;;;29.50;26.44;95208.28;5030229;28;20569;-70
2021/08/21 11:06:09;;;;;;;7.13;4.93;;;;;;;29.32;26.70;95213.47;5029079;28;20576;-69
2021/08/21 11:08:39;;;;;;;5.63;5.03;;;;;;;29.60;26.49;95204.91;5027630;28;20224;-67
2021/08/21 11:11:14;;;;;;;5.60;4.90;;;;;;;29.72;25.53;95200.09;5029324;28;20189;-67
2021/08/21 11:17:00;;;;;;;12.33;11.13;;;;;;;29.96;26.10;95196.09;5027459;28;20259;-68
2021/08/21 11:19:27;;;;;;;22.90;20.67;;;;;;;29.99;26.46;95200.75;5030292;28;20703;-71
2021/08/21 11:22:09;;;;;;;6.70;5.20;;;;;;;30.01;26.10;95197.69;5015841;28;20196;-66
2021/08/21 11:24:38;;;;;;;6.07;5.47;;;;;;;30.20;26.14;95181.28;5029358;28;20258;-70
2021/08/21 11:27:28;;;;;;;12.33;7.83;;;;;;;30.29;25.76;95179.81;5029237;28;20199;-72
2021/08/21 11:30:13;;;;;;;6.70;4.73;;;;;;;30.23;25.10;95178.59;5015817;28;20613;-70
2021/08/21 11:32:44;;;;;;;6.70;5.37;;;;;;;30.38;26.41;95177.56;5026072;28;20273;-70
2021/08/21 11:35:38;;;;;;;6.23;5.57;;;;;;;30.56;25.42;95181.22;5029852;28;20196;-69
2021/08/21 11:38:08;;;;;;;6.50;5.37;;;;;;;30.54;24.97;95180.81;5022753;28;20683;-71
2021/08/21 11:40:40;;;;;;;7.27;5.90;;;;;;;30.68;25.29;95175.50;5016672;28;20219;-71
2021/08/21 11:43:09;;;;;;;8.43;5.20;;;;;;;30.71;25.43;95185.56;5017243;28;20237;-69
2021/08/21 11:45:37;;;;;;;6.77;6.00;;;;;;;30.63;25.45;95175.84;5022149;28;20538;-70
2021/08/21 11:48:05;;;;;;;16.73;13.23;;;;;;;30.30;25.72;95178.69;5021949;28;20691;-71
2021/08/21 11:50:41;;;;;;;12.43;11.23;;;;;;;30.22;25.88;95176.28;5025399;28;20251;-71
2021/08/21 11:53:13;;;;;;;8.73;6.90;;;;;;;30.16;26.24;95183.16;5029284;28;20674;-70
2021/08/21 11:55:40;;;;;;;6.43;5.30;;;;;;;30.12;26.39;95177.72;5025706;28;20259;-71
2021/08/21 11:58:09;;;;;;;9.60;8.40;;;;;;;30.32;25.92;95187.19;5009890;28;20237;-71
2021/08/21 12:00:40;;;;;;;7.60;5.30;;;;;;;30.51;26.29;95178.84;5049799;28;20589;-70
2021/08/21 12:03:10;;;;;;;7.83;6.60;;;;;;;30.53;26.29;95186.59;5030055;28;20189;-70
2021/08/21 12:05:41;;;;;;;7.33;6.07;;;;;;;30.75;26.42;95189.06;5029329;28;20189;-72
2021/08/21 12:08:28;;;;;;;14.70;12.37;;;;;;;30.98;26.37;95179.97;5029551;28;20197;-71
2021/08/21 12:11:02;;;;;;;88.43;76.50;;;;;;;31.04;26.20;95184.63;5017947;28;20204;-71
2021/08/21 12:13:34;;;;;;;31.77;26.77;;;;;;;30.69;26.35;95179.00;5015556;28;20227;-72
2021/08/21 12:16:10;;;;;;;37.07;33.30;;;;;;;30.30;27.12;95172.50;5028792;28;20204;-70
2021/08/21 12:18:40;;;;;;;23.43;19.17;;;;;;;30.29;26.87;95181.75;5018143;28;20220;-70
2021/08/21 12:21:09;;;;;;;12.43;11.13;;;;;;;29.96;27.62;95179.88;5032996;28;20201;-70
2021/08/21 12:23:36;;;;;;;39.83;35.93;;;;;;;29.80;26.99;95176.63;5032699;28;20702;-71
2021/08/21 12:26:04;;;;;;;24.53;22.03;;;;;;;29.59;27.30;95168.25;5033035;28;20679;-70
2021/08/21 12:28:44;;;;;;;34.30;29.53;;;;;;;29.42;27.66;95182.31;5033384;28;20196;-70
2021/08/21 12:31:16;;;;;;;91.30;81.70;;;;;;;29.39;27.93;95172.28;5033232;28;20683;-70
2021/08/21 12:33:45;;;;;;;22.53;19.53;;;;;;;28.99;28.23;95170.97;5019433;28;20288;-71
2021/08/21 12:36:19;;;;;;;61.47;54.87;;;;;;;29.05;28.52;95167.97;5032607;28;20193;-72
2021/08/21 12:39:10;;;;;;;20.17;16.77;;;;;;;29.02;27.66;95179.47;5032994;28;20217;-70